Portada
METAR-TAF:

METAR-TAF

Aeropuertos :

Aeropuerto Internacional Josefa Camejo

Paraguaná, Venezuela

latitud: 11-47N, longitud: 070-09W, altitud: 23 m

METAR: falta

Hora: 05:39 (09:39 UTC)

Pronóstico

El informe se hizo hace 11 horas y 39 minutos, a las 22:00 UTC
Pronóstico válido del 18 a las 18 UTC al 19 a las 18 UTC
Viento 14 kt del este
Visibilidad 10 km o más
Escasas nubes a una altura de 1300 ft
Evolucionando progresivamente
del 18 a las 18 UTC al 18 a las 22 UTC
Viento 16 kt del este con ráfagas de 18 kt
Nubes dispersas a una altura de 1300 ft
Nubes dispersas a una altura de 10000 ft

TAF: SVJC 182200Z 1818/1918 08014KT 9999 FEW013 TX33/19Z TN24/07Z BECMG 1818/1822 09016G18KT SCT013 SCT100

Observaciones y pronósticos meteorológicos de más de 4000 aeropuertos (mensajes METAR y TAF).

Los puntos amarillos y rojos representan las estaciones disponibles.

Ponga el ratón en el punto deseado para ver el nombre de la estación.

Haga clic para ver las observaciones y los pronósticos meteorológicos.

Para cambiar el mapa : haga clic en los botones verdes con una cruz de color negro para hacer un zoom, en el botón verde con un guión para alejar o en las flechas verdes para mapas adyacentes.


METAR-TAF: